Time;durP1;ratioP1;P1;durP2;ratioP2;P2;SDS_P1;SDS_P2;PMS_P1;PMS_P2;Temp;Humidity;BMP_temperature;BMP_pressure;BME280_temperature;BME280_humidity;BME280_pressure;Samples;Min_cycle;Max_cycle;Signal;HPM_P1;HPM_P2
2021/08/05 00:02:13;;;;;;;13.95;8.95;;;;;;;13.67;79.93;100083.80;1647134;87;27703;-69
2021/08/05 00:04:40;;;;;;;14.55;9.53;;;;;;;13.63;80.09;100083.67;1646934;87;25799;-69
2021/08/05 00:07:07;;;;;;;15.63;9.65;;;;;;;13.59;80.16;100084.13;1624732;87;25716;-68
2021/08/05 00:09:34;;;;;;;15.60;9.50;;;;;;;13.55;80.26;100079.92;1646987;87;25711;-69
2021/08/05 00:12:01;;;;;;;11.45;8.95;;;;;;;13.50;80.23;100077.42;1647031;87;25819;-69
2021/08/05 00:14:28;;;;;;;15.93;9.80;;;;;;;13.47;80.46;100073.19;1647024;87;27267;-69
2021/08/05 00:16:55;;;;;;;13.38;9.50;;;;;;;13.44;80.44;100076.81;1647015;87;26398;-69
2021/08/05 00:19:22;;;;;;;15.15;9.00;;;;;;;13.41;80.60;100070.67;1647053;85;25840;-69
2021/08/05 00:21:48;;;;;;;15.20;9.98;;;;;;;13.37;80.64;100077.91;1646992;87;26612;-69
2021/08/05 00:24:15;;;;;;;15.90;10.20;;;;;;;13.32;80.59;100078.12;1677420;82;25748;-69
2021/08/05 00:26:41;;;;;;;13.18;9.48;;;;;;;13.28;80.48;100077.17;1730929;81;27523;-69
2021/08/05 00:29:08;;;;;;;16.65;9.83;;;;;;;13.26;80.28;100078.05;1730975;81;25715;-69
2021/08/05 00:31:34;;;;;;;12.95;9.78;;;;;;;13.24;80.22;100078.38;1730857;82;25771;-69
2021/08/05 00:34:01;;;;;;;16.85;9.70;;;;;;;13.22;80.60;100077.13;1730938;82;25669;-69
2021/08/05 00:36:27;;;;;;;12.18;9.35;;;;;;;13.19;80.54;100075.08;1730949;82;25646;-69
2021/08/05 00:38:54;;;;;;;13.50;9.53;;;;;;;13.16;80.76;100071.66;1730970;82;27510;-69
2021/08/05 00:41:20;;;;;;;12.90;8.68;;;;;;;13.14;80.80;100063.05;1730687;82;25776;-69
2021/08/05 00:43:47;;;;;;;13.88;9.93;;;;;;;13.11;80.91;100061.00;1730947;82;25767;-69
2021/08/05 00:46:13;;;;;;;15.83;9.48;;;;;;;13.07;80.93;100059.51;1730863;81;25698;-70
2021/08/05 00:48:39;;;;;;;13.13;9.38;;;;;;;13.04;81.16;100056.91;1730875;82;25650;-69
2021/08/05 00:51:06;;;;;;;13.08;8.93;;;;;;;13.00;81.09;100051.89;1710245;82;27502;-69
2021/08/05 00:53:32;;;;;;;16.15;9.53;;;;;;;12.97;81.15;100051.77;1730782;82;25631;-69
2021/08/05 00:55:58;;;;;;;13.10;9.18;;;;;;;12.95;81.43;100046.66;1730896;82;25816;-71
2021/08/05 00:58:25;;;;;;;12.07;9.03;;;;;;;12.92;81.26;100052.74;1730981;81;26209;-70
2021/08/05 01:00:56;;;;;;;13.60;9.15;;;;;;;12.91;81.45;100050.39;1730868;82;25804;-70
2021/08/05 01:03:31;;;;;;;12.55;8.90;;;;;;;12.89;81.54;100045.28;1730908;82;28420;-70
2021/08/05 01:06:35;;;;;;;11.55;8.15;;;;;;;12.87;81.38;100042.08;1730928;81;25869;-70
2021/08/05 01:09:19;;;;;;;11.97;8.33;;;;;;;12.85;81.55;100042.98;1730966;82;25707;-70
2021/08/05 01:12:05;;;;;;;11.50;9.15;;;;;;;12.83;81.60;100046.02;1730976;82;25747;-70
2021/08/05 01:14:37;;;;;;;15.63;9.53;;;;;;;12.82;81.57;100039.56;1721634;82;25822;-70
2021/08/05 01:17:08;;;;;;;20.12;9.25;;;;;;;12.82;81.72;100036.84;1731017;82;28073;-70
2021/08/05 01:19:54;;;;;;;11.97;8.50;;;;;;;12.78;81.56;100031.29;1730838;82;26231;-70
2021/08/05 01:22:32;;;;;;;11.78;8.33;;;;;;;12.73;81.33;100036.91;1730877;82;25653;-67
2021/08/05 01:25:13;;;;;;;13.50;9.28;;;;;;;12.67;81.31;100026.82;1730837;82;25746;-69
2021/08/05 01:27:41;;;;;;;14.15;9.15;;;;;;;12.66;81.12;100036.64;1730319;82;25711;-69
2021/08/05 01:30:11;;;;;;;13.08;8.75;;;;;;;12.63;81.30;100036.75;1731024;82;27482;-69
2021/08/05 01:32:40;;;;;;;13.18;8.35;;;;;;;12.60;81.10;100038.77;1730919;82;25745;-69
2021/08/05 01:35:09;;;;;;;10.63;8.53;;;;;;;12.57;80.84;100035.92;1731305;82;25766;-69
2021/08/05 01:37:36;;;;;;;11.83;8.93;;;;;;;12.53;80.62;100034.39;1710739;82;26093;-69
2021/08/05 01:40:04;;;;;;;13.55;8.60;;;;;;;12.50;80.76;100031.79;1730975;81;25787;-69
2021/08/05 01:42:32;;;;;;;14.33;7.83;;;;;;;12.46;80.98;100028.16;1731015;81;27633;-69
2021/08/05 01:44:59;;;;;;;15.78;8.58;;;;;;;12.44;80.97;100032.30;1730960;81;25791;-70
2021/08/05 01:47:26;;;;;;;14.03;9.00;;;;;;;12.39;80.96;100029.20;1730940;81;25683;-70
2021/08/05 01:49:53;;;;;;;11.10;8.25;;;;;;;12.36;81.24;100020.94;1730995;82;25649;-70
2021/08/05 01:52:21;;;;;;;17.27;9.00;;;;;;;12.33;81.52;100018.33;1710346;82;25838;-70
2021/08/05 01:54:48;;;;;;;12.18;8.55;;;;;;;12.31;81.57;100016.52;1731032;82;28099;-70
2021/08/05 01:57:15;;;;;;;13.32;8.70;;;;;;;12.30;81.69;100021.13;1730971;82;25768;-70
2021/08/05 01:59:42;;;;;;;9.35;7.95;;;;;;;12.30;81.86;100022.48;1730972;81;25701;-70
2021/08/05 02:02:09;;;;;;;12.20;8.95;;;;;;;12.31;81.86;100022.72;1731018;81;25762;-70
2021/08/05 02:05:11;;;;;;;16.77;8.45;;;;;;;12.33;82.08;100026.47;1731038;82;25769;-71
2021/08/05 02:07:54;;;;;;;13.78;8.68;;;;;;;12.33;82.01;100027.25;1731117;82;27639;-70
2021/08/05 02:10:29;;;;;;;13.60;7.65;;;;;;;12.33;82.11;100027.83;1731062;82;25824;-70
2021/08/05 02:13:19;;;;;;;9.93;7.22;;;;;;;12.32;82.10;100024.87;1730976;82;25677;-70
2021/08/05 02:15:55;;;;;;;11.35;7.62;;;;;;;12.29;82.11;100023.62;1731048;82;25794;-70
2021/08/05 02:18:28;;;;;;;12.63;8.38;;;;;;;12.27;82.06;100025.05;1731007;82;26319;-70
2021/08/05 02:20:57;;;;;;;15.80;8.23;;;;;;;12.23;81.92;100026.27;1731018;82;27524;-70
2021/08/05 02:23:23;;;;;;;14.13;8.48;;;;;;;12.23;81.77;100026.84;1730985;82;25803;-70
2021/08/05 02:25:51;;;;;;;14.28;8.25;;;;;;;12.21;81.88;100029.88;1730960;82;25705;-70
2021/08/05 02:28:20;;;;;;;12.93;8.43;;;;;;;12.20;81.52;100031.55;1730987;82;25707;-70
2021/08/05 02:30:49;;;;;;;10.28;8.20;;;;;;;12.18;81.72;100035.94;1731056;82;25739;-71
2021/08/05 02:33:16;;;;;;;9.75;8.08;;;;;;;12.16;81.71;100038.19;1731040;81;28195;-70
2021/08/05 02:35:47;;;;;;;12.55;8.80;;;;;;;12.13;81.71;100032.05;1731063;82;25706;-69
2021/08/05 02:38:14;;;;;;;13.95;9.33;;;;;;;12.12;81.47;100038.59;1710281;82;25798;-70
2021/08/05 02:40:45;;;;;;;12.93;8.23;;;;;;;12.09;81.36;100040.05;1731132;82;25650;-70
2021/08/05 02:43:12;;;;;;;14.10;8.75;;;;;;;12.07;81.39;100043.65;1731099;82;25698;-69
2021/08/05 02:45:41;;;;;;;11.65;8.85;;;;;;;12.04;81.40;100042.94;1731961;81;27667;-69
2021/08/05 02:48:09;;;;;;;10.38;8.73;;;;;;;12.01;81.52;100039.52;1735767;82;25699;-69
2021/08/05 02:50:37;;;;;;;15.18;8.65;;;;;;;12.00;81.21;100046.61;1714915;82;25838;-69
2021/08/05 02:53:05;;;;;;;11.80;8.65;;;;;;;11.97;81.38;100039.94;1735665;82;25692;-70
2021/08/05 02:55:33;;;;;;;12.18;8.18;;;;;;;11.96;81.33;100043.19;1735712;82;25745;-70
2021/08/05 02:58:01;;;;;;;12.65;8.05;;;;;;;11.95;81.41;100039.45;1735834;81;27530;-70
2021/08/05 03:00:27;;;;;;;14.70;8.65;;;;;;;11.94;81.70;100042.72;1715136;82;25700;-69
2021/08/05 03:02:54;;;;;;;14.20;9.13;;;;;;;11.93;81.78;100042.48;1735618;82;25725;-69
2021/08/05 03:05:20;;;;;;;13.72;8.70;;;;;;;11.93;81.98;100035.70;1735660;82;25636;-69
2021/08/05 03:07:47;;;;;;;15.60;9.18;;;;;;;11.91;81.99;100035.23;1735681;82;25789;-70
2021/08/05 03:10:15;;;;;;;14.20;9.13;;;;;;;11.86;82.02;100029.95;1735743;82;27442;-70
2021/08/05 03:12:43;;;;;;;12.17;8.47;;;;;;;11.86;82.55;100027.25;1735917;81;26242;-70
2021/08/05 03:15:11;;;;;;;10.98;8.95;;;;;;;11.86;82.55;100027.25;1735650;82;25726;-69
2021/08/05 03:17:38;;;;;;;12.30;9.08;;;;;;;11.87;82.65;100019.94;1735674;82;26059;-70
2021/08/05 03:20:07;;;;;;;11.85;8.78;;;;;;;11.88;82.75;100020.16;1735677;82;25647;-70
2021/08/05 03:22:34;;;;;;;14.80;8.28;;;;;;;11.91;83.03;100018.97;1735692;81;27440;-69
2021/08/05 03:25:00;;;;;;;11.65;8.30;;;;;;;11.94;83.23;100018.33;1735659;82;26364;-70
2021/08/05 03:27:26;;;;;;;13.08;9.18;;;;;;;11.98;83.35;100014.41;1735741;82;25741;-70
2021/08/05 03:29:52;;;;;;;13.50;8.30;;;;;;;12.02;83.54;100007.77;1735579;82;25666;-70
2021/08/05 03:32:19;;;;;;;13.88;9.15;;;;;;;12.03;83.55;100003.95;1735720;81;25648;-70
2021/08/05 03:34:45;;;;;;;11.97;8.25;;;;;;;12.10;83.65;100003.66;1735708;82;28177;-70
2021/08/05 03:37:11;;;;;;;11.70;8.08;;;;;;;12.14;83.93;100004.62;1735554;82;25899;-70
2021/08/05 03:39:37;;;;;;;12.03;9.13;;;;;;;12.20;84.00;100003.87;1735671;82;25640;-70
2021/08/05 03:42:04;;;;;;;9.75;7.83;;;;;;;12.27;84.24;100003.36;1744104;81;25630;-70
2021/08/05 03:44:30;;;;;;;10.03;7.25;;;;;;;12.33;84.57;100009.63;1737832;82;25888;-70
2021/08/05 03:46:56;;;;;;;10.60;8.48;;;;;;;12.41;84.74;100007.19;1735675;82;27565;-70
2021/08/05 03:49:23;;;;;;;12.60;8.15;;;;;;;12.48;84.97;100000.67;1735541;82;25702;-70
2021/08/05 03:51:49;;;;;;;9.35;8.25;;;;;;;12.56;85.22;99996.33;1735648;82;26355;-70
2021/08/05 03:54:15;;;;;;;10.53;7.70;;;;;;;12.64;85.59;99997.62;1735686;82;26206;-70
2021/08/05 03:56:41;;;;;;;9.25;8.10;;;;;;;12.73;85.75;99998.92;1735678;82;25614;-70
2021/08/05 03:59:08;;;;;;;10.70;8.73;;;;;;;12.82;86.03;99995.59;1735580;82;27476;-70
2021/08/05 04:01:34;;;;;;;12.65;8.28;;;;;;;12.92;86.17;99988.95;1735495;81;25714;-70
2021/08/05 04:04:01;;;;;;;9.70;8.45;;;;;;;13.02;86.35;99995.91;1735599;82;25751;-71
2021/08/05 04:06:27;;;;;;;10.72;9.23;;;;;;;13.11;86.59;99998.00;1735545;82;26393;-70
2021/08/05 04:08:53;;;;;;;13.32;9.48;;;;;;;13.22;86.82;99998.38;1715036;82;25767;-70
2021/08/05 04:11:20;;;;;;;15.45;10.13;;;;;;;13.33;87.10;100002.30;1735621;82;27529;-70
2021/08/05 04:13:46;;;;;;;12.47;9.63;;;;;;;13.45;87.19;100006.41;1735555;81;26350;-70
2021/08/05 04:16:13;;;;;;;13.40;10.18;;;;;;;13.56;87.33;100010.84;1735646;82;25642;-70
2021/08/05 04:18:40;;;;;;;11.57;9.75;;;;;;;13.66;87.32;100004.77;1735626;82;26475;-70
2021/08/05 04:21:06;;;;;;;11.80;9.55;;;;;;;13.75;87.13;100002.73;1735613;81;26579;-70
2021/08/05 04:23:33;;;;;;;11.10;9.50;;;;;;;13.83;87.07;100000.49;1735637;82;27503;-70
2021/08/05 04:25:59;;;;;;;11.63;9.03;;;;;;;13.92;87.21;99998.45;1735533;81;25686;-70
2021/08/05 04:28:25;;;;;;;10.78;9.20;;;;;;;13.99;87.03;99999.25;1735684;82;25730;-70
2021/08/05 04:30:53;;;;;;;11.28;9.18;;;;;;;14.07;87.12;99999.72;1735561;82;25848;-70
2021/08/05 04:33:20;;;;;;;9.75;8.75;;;;;;;14.15;87.05;100001.53;1735620;81;25845;-67
2021/08/05 04:35:46;;;;;;;10.60;9.13;;;;;;;14.22;87.00;100005.05;1736144;82;27517;-67
2021/08/05 04:38:14;;;;;;;9.45;8.53;;;;;;;14.28;86.90;100003.67;1754685;79;25608;-67
2021/08/05 04:40:42;;;;;;;10.15;9.05;;;;;;;14.34;86.88;100006.41;1778077;79;25765;-67
2021/08/05 04:43:10;;;;;;;11.65;9.73;;;;;;;14.43;87.21;100006.85;1777425;80;25668;-67
2021/08/05 04:45:36;;;;;;;10.85;9.23;;;;;;;14.50;87.05;99998.33;1771979;80;26359;-67
2021/08/05 04:48:07;;;;;;;11.43;9.13;;;;;;;14.56;87.01;99995.61;1772015;80;27502;-67
2021/08/05 04:50:37;;;;;;;10.68;8.43;;;;;;;14.65;87.25;100000.95;1772074;79;25760;-68
2021/08/05 04:53:05;;;;;;;12.98;9.73;;;;;;;14.74;87.33;100000.27;1772993;79;25389;-68
2021/08/05 04:55:32;;;;;;;14.30;10.30;;;;;;;14.81;87.05;99998.87;1762122;80;25783;-72
2021/08/05 04:58:05;;;;;;;14.90;11.18;;;;;;;14.88;86.89;99999.06;1772196;79;25791;-65
2021/08/05 05:00:35;;;;;;;17.65;10.48;;;;;;;14.94;86.84;100007.23;1770990;80;27455;-71
2021/08/05 05:03:03;;;;;;;14.53;11.28;;;;;;;15.03;87.06;100008.45;1772365;80;25827;-78
2021/08/05 05:05:30;;;;;;;15.18;12.45;;;;;;;15.11;87.18;100001.48;1772308;80;25699;-79
2021/08/05 05:07:58;;;;;;;15.25;12.05;;;;;;;15.19;86.84;99997.59;1771915;79;25776;-75
2021/08/05 05:10:25;;;;;;;14.53;12.73;;;;;;;15.25;86.74;100002.45;1772378;80;25744;-80
2021/08/05 05:12:51;;;;;;;13.32;11.73;;;;;;;15.35;86.94;100005.83;1771773;80;28265;-71
2021/08/05 05:15:19;;;;;;;13.22;11.83;;;;;;;15.42;87.00;100006.80;1771221;80;25897;-72
2021/08/05 05:17:46;;;;;;;20.97;13.15;;;;;;;15.50;86.84;100007.22;1772291;79;25606;-72
2021/08/05 05:20:13;;;;;;;16.57;12.28;;;;;;;15.57;86.55;100008.56;1772363;80;26290;-71
2021/08/05 05:22:40;;;;;;;20.75;14.47;;;;;;;15.62;86.47;100008.30;1776717;80;25826;-72
2021/08/05 05:25:09;;;;;;;15.63;13.38;;;;;;;15.67;86.29;100006.09;1772408;79;27438;-72
2021/08/05 05:27:36;;;;;;;16.82;12.50;;;;;;;15.72;86.10;99999.61;1776733;80;29707;-71
2021/08/05 05:30:03;;;;;;;15.23;12.85;;;;;;;15.76;85.77;99994.27;1772398;80;25787;-72
2021/08/05 05:32:31;;;;;;;17.60;13.72;;;;;;;15.80;86.00;99998.67;1711972;81;26028;-72
2021/08/05 05:34:58;;;;;;;13.80;12.30;;;;;;;15.86;85.92;100001.34;1705970;83;25769;-71
2021/08/05 05:37:24;;;;;;;16.95;12.88;;;;;;;15.92;85.96;99999.72;1685056;84;28205;-70
2021/08/05 05:39:53;;;;;;;19.90;14.07;;;;;;;16.01;86.15;99997.62;1708298;83;25809;-70
2021/08/05 05:42:19;;;;;;;17.37;14.20;;;;;;;16.10;86.22;100005.63;1705854;83;25804;-70
2021/08/05 05:44:47;;;;;;;17.12;13.43;;;;;;;16.18;86.27;99995.88;1706515;83;26091;-70
2021/08/05 05:47:14;;;;;;;17.52;13.90;;;;;;;16.28;86.02;99999.20;1709741;83;25689;-70
2021/08/05 05:49:41;;;;;;;17.20;14.47;;;;;;;16.36;86.17;99995.50;1709680;83;28003;-70
2021/08/05 05:52:08;;;;;;;19.12;14.07;;;;;;;16.45;86.27;99992.02;1687336;83;25758;-71
2021/08/05 05:54:34;;;;;;;19.50;14.25;;;;;;;16.56;86.21;99989.52;1710640;83;25796;-70
2021/08/05 05:57:01;;;;;;;14.23;11.95;;;;;;;16.65;86.26;99986.00;1700421;84;25769;-71
2021/08/05 05:59:27;;;;;;;15.00;13.40;;;;;;;16.73;85.69;99986.37;1704094;83;25763;-71
2021/08/05 06:01:53;;;;;;;15.60;13.45;;;;;;;16.81;85.39;99981.86;1700404;84;27482;-71
2021/08/05 06:04:20;;;;;;;14.60;13.03;;;;;;;16.89;84.98;99982.81;1700373;84;25640;-71
2021/08/05 06:06:47;;;;;;;17.05;13.78;;;;;;;16.98;84.99;99976.58;1700393;84;25670;-70
2021/08/05 06:09:13;;;;;;;16.52;13.65;;;;;;;17.09;85.04;99978.15;1710637;83;25805;-70
2021/08/05 06:11:40;;;;;;;16.73;13.53;;;;;;;17.21;85.35;99975.84;1694840;84;25652;-70
2021/08/05 06:14:06;;;;;;;16.67;14.87;;;;;;;17.33;85.20;99971.57;1710650;83;27534;-70
2021/08/05 06:16:33;;;;;;;14.43;12.58;;;;;;;17.45;84.95;99972.79;1710589;83;25731;-70
2021/08/05 06:18:59;;;;;;;19.90;14.38;;;;;;;17.59;84.72;99975.54;1672426;84;25763;-70
2021/08/05 06:21:26;;;;;;;18.55;16.30;;;;;;;17.71;84.58;99978.13;1700388;84;26234;-70
2021/08/05 06:23:52;;;;;;;14.20;12.23;;;;;;;17.75;83.55;99973.48;1710587;83;25727;-70
2021/08/05 06:26:23;;;;;;;13.10;11.83;;;;;;;17.78;83.17;99970.02;1710631;83;28078;-70
2021/08/05 06:28:50;;;;;;;12.88;11.57;;;;;;;17.81;82.89;99968.48;1710554;83;25796;-70
2021/08/05 06:31:18;;;;;;;12.73;11.43;;;;;;;17.84;82.61;99965.03;1710616;83;25657;-70
2021/08/05 06:33:50;;;;;;;12.25;10.88;;;;;;;17.85;82.36;99961.93;1710572;83;25729;-70
2021/08/05 06:36:15;;;;;;;14.18;11.05;;;;;;;17.89;82.67;99960.09;1700244;84;25801;-70
2021/08/05 06:38:42;;;;;;;12.20;10.72;;;;;;;17.95;82.59;99958.41;1700425;84;27567;-70
2021/08/05 06:41:08;;;;;;;13.60;10.15;;;;;;;17.99;82.37;99954.55;1700245;84;25796;-72
2021/08/05 06:43:35;;;;;;;12.95;10.72;;;;;;;18.04;82.18;99954.23;1710593;83;25607;-70
2021/08/05 06:46:01;;;;;;;14.23;10.65;;;;;;;18.08;82.16;99955.10;1710470;83;26409;-70
2021/08/05 06:48:27;;;;;;;10.55;9.55;;;;;;;18.10;81.66;99954.15;1710656;83;25709;-70
2021/08/05 06:50:54;;;;;;;10.60;9.43;;;;;;;18.11;81.47;99950.82;1704012;84;27475;-70
2021/08/05 06:53:20;;;;;;;12.28;9.43;;;;;;;18.11;81.05;99950.23;1700287;84;25719;-70
2021/08/05 06:55:48;;;;;;;10.13;8.98;;;;;;;18.14;81.27;99948.72;1700485;83;25717;-70
2021/08/05 06:58:14;;;;;;;11.48;10.10;;;;;;;18.16;81.03;99949.14;1700338;84;26233;-70
2021/08/05 07:00:41;;;;;;;10.23;9.28;;;;;;;18.18;81.21;99947.41;1710559;83;25676;-70
2021/08/05 07:03:07;;;;;;;12.28;9.13;;;;;;;18.21;81.05;99947.45;1700407;84;27484;-70
2021/08/05 07:05:33;;;;;;;9.58;8.63;;;;;;;18.25;80.94;99949.68;1700304;84;25703;-70
2021/08/05 07:08:00;;;;;;;9.90;9.00;;;;;;;18.28;81.05;99936.59;1703863;84;25805;-70
2021/08/05 07:10:27;;;;;;;9.95;9.00;;;;;;;18.36;80.94;99940.83;1700486;83;25687;-70
2021/08/05 07:12:53;;;;;;;14.25;9.45;;;;;;;18.37;80.64;99937.72;1700415;84;25785;-70
2021/08/05 07:15:21;;;;;;;12.65;8.93;;;;;;;18.41;80.66;99940.50;1700402;84;28135;-70
2021/08/05 07:17:47;;;;;;;9.43;8.53;;;;;;;18.48;80.88;99932.37;1700257;84;25771;-70
2021/08/05 07:20:16;;;;;;;11.48;9.13;;;;;;;18.54;80.67;99929.53;1710619;83;25663;-70
2021/08/05 07:22:43;;;;;;;9.68;8.30;;;;;;;18.59;80.42;99920.19;1700397;84;25761;-70
2021/08/05 07:25:12;;;;;;;10.40;8.08;;;;;;;18.66;80.33;99921.08;1700455;83;25759;-69
2021/08/05 07:27:41;;;;;;;8.75;7.83;;;;;;;18.72;79.65;99920.16;1700507;84;27460;-69
2021/08/05 07:30:10;;;;;;;8.90;7.42;;;;;;;18.76;79.68;99918.83;1700373;83;25707;-69
2021/08/05 07:32:38;;;;;;;10.05;7.17;;;;;;;18.80;79.40;99924.56;1700479;84;25722;-69
2021/08/05 07:35:07;;;;;;;8.23;7.42;;;;;;;18.82;79.01;99920.89;1700402;83;26330;-69
2021/08/05 07:37:34;;;;;;;8.13;7.33;;;;;;;18.84;78.80;99923.26;1703840;84;25725;-69
2021/08/05 07:40:00;;;;;;;7.97;7.22;;;;;;;18.88;78.75;99923.30;1700495;84;27291;-69
2021/08/05 07:42:27;;;;;;;9.28;7.45;;;;;;;18.90;78.76;99922.34;1700409;84;25847;-69
2021/08/05 07:44:54;;;;;;;10.08;6.90;;;;;;;18.96;78.76;99923.00;1700430;84;25742;-69
2021/08/05 07:47:21;;;;;;;8.15;7.42;;;;;;;19.00;78.66;99920.30;1712262;83;25651;-69
2021/08/05 07:49:47;;;;;;;8.75;7.00;;;;;;;19.04;78.50;99910.95;1694793;84;25787;-69
2021/08/05 07:52:15;;;;;;;8.98;6.60;;;;;;;19.09;78.15;99914.54;1746748;81;27349;-69
2021/08/05 07:54:41;;;;;;;6.92;6.33;;;;;;;19.09;77.81;99910.42;1710448;83;25747;-69
2021/08/05 07:57:08;;;;;;;6.87;6.17;;;;;;;19.13;77.83;99913.39;1746738;81;26383;-70
2021/08/05 07:59:34;;;;;;;7.85;6.55;;;;;;;19.21;77.89;99917.00;1710198;83;25738;-69
2021/08/05 08:02:01;;;;;;;8.65;6.70;;;;;;;19.25;77.70;99906.85;1747019;82;25658;-69
2021/08/05 08:04:27;;;;;;;6.65;6.03;;;;;;;19.34;77.48;99908.72;1710504;83;27467;-68
2021/08/05 08:06:54;;;;;;;10.98;6.12;;;;;;;19.41;77.59;99907.41;1700355;84;25750;-68
2021/08/05 08:09:20;;;;;;;8.30;7.03;;;;;;;19.52;77.43;99903.97;1700124;83;26406;-69
2021/08/05 08:11:47;;;;;;;10.03;5.97;;;;;;;19.63;77.10;99907.59;1746833;81;25613;-69
2021/08/05 08:14:13;;;;;;;8.55;6.33;;;;;;;19.72;76.71;99908.64;1746762;82;25665;-67
2021/08/05 08:16:40;;;;;;;6.72;6.12;;;;;;;19.79;76.43;99910.09;1710560;83;27526;-68
2021/08/05 08:19:08;;;;;;;6.22;5.62;;;;;;;19.87;76.09;99901.30;1746709;82;25717;-68
2021/08/05 08:21:34;;;;;;;8.00;5.92;;;;;;;19.94;76.15;99904.91;1710508;83;25650;-68
2021/08/05 08:24:00;;;;;;;9.43;5.45;;;;;;;20.03;75.93;99902.41;1694811;83;25731;-68
2021/08/05 08:26:27;;;;;;;7.45;5.20;;;;;;;20.07;75.02;99901.84;1710573;83;25747;-68
2021/08/05 08:28:53;;;;;;;5.75;5.17;;;;;;;20.05;74.27;99903.59;1746459;81;28161;-68
2021/08/05 08:31:19;;;;;;;5.05;4.55;;;;;;;20.05;74.60;99905.55;1710478;83;25751;-68
2021/08/05 08:33:46;;;;;;;5.65;4.60;;;;;;;20.05;74.77;99898.09;1746740;82;26406;-68
2021/08/05 08:36:12;;;;;;;5.90;5.25;;;;;;;20.09;74.74;99898.92;1710538;83;26375;-68
2021/08/05 08:38:42;;;;;;;8.88;5.53;;;;;;;20.14;74.79;99893.07;1746761;82;25638;-68
2021/08/05 08:41:07;;;;;;;6.50;5.75;;;;;;;20.19;74.64;99893.86;1709916;83;28227;-68
2021/08/05 08:43:34;;;;;;;5.85;5.25;;;;;;;20.21;74.42;99892.33;1726093;80;25780;-68
2021/08/05 08:46:01;;;;;;;6.85;5.22;;;;;;;20.23;74.35;99887.23;1710579;83;25647;-68
2021/08/05 08:48:28;;;;;;;5.17;4.65;;;;;;;20.24;73.89;99891.53;1690472;83;25588;-68
2021/08/05 08:51:01;;;;;;;5.65;4.53;;;;;;;20.20;73.51;99888.59;1710540;83;25677;-69
2021/08/05 08:53:33;;;;;;;5.60;5.10;;;;;;;20.18;73.34;99886.81;1710572;83;27986;-69
2021/08/05 08:56:01;;;;;;;8.33;5.83;;;;;;;20.15;73.21;99880.90;1710434;83;25875;-68
2021/08/05 08:58:28;;;;;;;9.80;5.92;;;;;;;20.12;73.20;99885.00;1675794;85;25681;-68
2021/08/05 09:00:55;;;;;;;8.68;5.87;;;;;;;20.11;73.26;99881.48;1710162;83;25794;-68
2021/08/05 09:03:21;;;;;;;5.75;5.08;;;;;;;20.08;72.92;99875.38;1710548;83;25632;-68
2021/08/05 09:05:48;;;;;;;7.58;5.00;;;;;;;20.05;72.76;99876.14;1710481;83;28114;-68
2021/08/05 09:08:15;;;;;;;4.62;4.20;;;;;;;20.00;72.63;99875.12;1710466;83;26070;-68
2021/08/05 09:10:41;;;;;;;9.05;4.78;;;;;;;19.96;72.73;99872.95;1675922;85;25654;-68
2021/08/05 09:13:08;;;;;;;6.35;5.00;;;;;;;19.94;72.54;99876.08;1710482;83;25749;-68
2021/08/05 09:15:47;;;;;;;7.25;5.28;;;;;;;19.90;72.41;99873.11;1710477;83;25639;-69
2021/08/05 09:18:38;;;;;;;7.83;5.08;;;;;;;19.86;72.51;99880.54;1675884;85;28038;-67
2021/08/05 09:21:25;;;;;;;7.17;5.22;;;;;;;19.81;72.54;99869.92;1710437;83;25714;-67
2021/08/05 09:24:09;;;;;;;5.65;5.03;;;;;;;19.76;72.35;99869.09;1710525;83;25752;-67
2021/08/05 09:26:42;;;;;;;7.47;4.50;;;;;;;19.71;72.37;99864.52;1675628;85;25704;-66
2021/08/05 09:29:25;;;;;;;5.58;4.65;;;;;;;19.67;72.41;99863.72;1710570;83;25709;-67
2021/08/05 09:31:58;;;;;;;8.78;6.65;;;;;;;19.64;72.32;99860.37;1709592;83;28363;-67
2021/08/05 09:34:42;;;;;;;7.00;5.12;;;;;;;19.59;72.60;99858.16;1710501;83;25770;-67
2021/08/05 09:37:14;;;;;;;4.80;4.28;;;;;;;19.62;72.81;99866.23;1675777;85;25717;-68
2021/08/05 09:39:45;;;;;;;7.37;4.42;;;;;;;19.61;72.90;99859.16;1710584;83;25666;-68
2021/08/05 09:42:16;;;;;;;5.17;4.70;;;;;;;19.64;73.12;99858.40;1714055;83;25662;-68
2021/08/05 09:44:46;;;;;;;5.35;4.67;;;;;;;19.66;73.06;99853.31;1702678;83;27442;-68
2021/08/05 09:47:19;;;;;;;5.78;4.45;;;;;;;19.70;73.14;99845.91;1741772;80;25741;-68
2021/08/05 09:49:53;;;;;;;5.92;4.20;;;;;;;19.74;73.17;99851.42;1705910;83;25706;-68
2021/08/05 09:52:29;;;;;;;6.50;4.30;;;;;;;19.83;73.31;99849.73;1741857;81;25701;-67
2021/08/05 09:54:56;;;;;;;5.75;4.28;;;;;;;19.87;73.08;99850.54;1741879;82;25622;-68
2021/08/05 09:57:26;;;;;;;8.28;5.03;;;;;;;19.93;73.17;99844.30;1741827;82;27130;-68
2021/08/05 10:00:13;;;;;;;5.35;4.15;;;;;;;19.98;73.00;99851.40;1705761;84;25732;-67
2021/08/05 10:02:49;;;;;;;7.37;4.40;;;;;;;20.00;72.88;99845.53;1731590;81;25705;-68
2021/08/05 10:05:23;;;;;;;5.95;4.47;;;;;;;20.00;72.73;99843.56;1741612;82;25861;-68
2021/08/05 10:07:56;;;;;;;4.35;3.87;;;;;;;20.01;73.03;99846.52;1706028;82;25756;-68
2021/08/05 10:10:28;;;;;;;4.50;4.10;;;;;;;20.02;72.91;99843.18;1742149;81;27417;-68
2021/08/05 10:13:00;;;;;;;5.53;4.45;;;;;;;20.03;72.97;99840.65;1705693;84;25690;-68
2021/08/05 10:15:30;;;;;;;4.87;4.00;;;;;;;20.07;73.16;99844.19;1742127;81;25638;-68
2021/08/05 10:17:59;;;;;;;7.03;4.20;;;;;;;20.12;73.50;99845.19;1731531;82;25688;-68
2021/08/05 10:20:29;;;;;;;6.83;5.10;;;;;;;20.16;73.25;99840.52;1705823;83;25776;-68
2021/08/05 10:22:57;;;;;;;4.78;3.70;;;;;;;20.23;73.44;99841.14;1742006;81;27515;-68
2021/08/05 10:25:25;;;;;;;4.17;3.77;;;;;;;20.28;73.57;99833.91;1705770;83;25797;-68
2021/08/05 10:27:57;;;;;;;4.50;4.10;;;;;;;20.36;73.52;99836.09;1741867;81;26233;-68
2021/08/05 10:30:26;;;;;;;5.75;4.45;;;;;;;20.41;73.30;99839.23;1741770;82;25708;-68
2021/08/05 10:32:54;;;;;;;4.85;4.35;;;;;;;20.46;73.41;99840.23;1705876;83;25713;-68
2021/08/05 10:35:22;;;;;;;4.83;4.20;;;;;;;20.53;73.60;99840.84;1741896;81;28174;-69
2021/08/05 10:37:49;;;;;;;4.65;4.12;;;;;;;20.62;73.72;99834.45;1708559;83;26393;-68
2021/08/05 10:40:17;;;;;;;7.55;4.60;;;;;;;20.67;73.59;99824.45;1742614;81;25615;-67
2021/08/05 10:42:47;;;;;;;4.65;4.15;;;;;;;20.68;73.39;99819.14;1705783;84;26772;-68
2021/08/05 10:45:17;;;;;;;;;;;;;;;20.70;73.60;99809.13;1699854;84;25643;-68
2021/08/05 10:47:47;;;;;;;;;;;;;;;20.74;73.63;99800.89;1699970;84;27542;-68
2021/08/05 10:50:18;;;;;;;7.40;4.67;;;;;;;20.75;73.58;99805.22;1697462;84;25768;-68
2021/08/05 10:52:48;;;;;;;5.90;4.50;;;;;;;20.75;73.49;99812.09;1705950;83;25796;-68
2021/08/05 10:55:32;;;;;;;4.67;4.20;;;;;;;20.76;73.46;99808.95;1697474;84;25628;-68
2021/08/05 10:58:15;;;;;;;5.03;4.25;;;;;;;20.73;73.19;99807.58;1696139;84;25752;-68
2021/08/05 11:01:02;;;;;;;4.60;4.17;;;;;;;20.72;72.98;99813.64;1705929;84;27442;-68
2021/08/05 11:03:40;;;;;;;4.17;3.87;;;;;;;20.73;73.15;99817.97;1752115;81;26071;-68
2021/08/05 11:06:10;;;;;;;5.03;4.03;;;;;;;20.70;72.66;99820.13;1742994;81;25699;-68
2021/08/05 11:08:36;;;;;;;4.70;3.62;;;;;;;20.62;72.54;99815.75;1734808;81;25701;-68
2021/08/05 11:11:26;;;;;;;5.90;4.10;;;;;;;20.56;72.69;99817.32;1741898;82;25745;-68
2021/08/05 11:14:05;;;;;;;5.03;3.90;;;;;;;20.56;72.94;99812.61;1741899;82;27454;-68
2021/08/05 11:16:59;;;;;;;4.47;4.08;;;;;;;20.57;73.26;99822.44;1737927;82;25837;-68
2021/08/05 11:19:29;;;;;;;4.55;4.10;;;;;;;20.57;73.21;99823.00;1706030;84;25764;-68
2021/08/05 11:21:57;;;;;;;4.92;4.28;;;;;;;20.57;73.18;99826.55;1692685;84;26141;-68
2021/08/05 11:24:51;;;;;;;6.75;5.15;;;;;;;20.54;73.10;99828.70;1705882;84;25829;-68
2021/08/05 11:27:21;;;;;;;4.55;3.90;;;;;;;20.52;73.16;99823.59;1697457;84;27569;-68
2021/08/05 11:29:48;;;;;;;4.55;4.17;;;;;;;20.53;73.71;99825.73;1705958;84;25657;-69
2021/08/05 11:32:27;;;;;;;4.50;4.15;;;;;;;20.55;73.08;99828.91;1697536;83;25691;-69
2021/08/05 11:35:08;;;;;;;7.58;6.53;;;;;;;20.54;73.24;99824.58;1691151;84;25750;-68